Foothill Ranch, CA (92610)

1:08 AM PST on December 09, 2016 (GMT -0800)
Viaggio Lane | | Change Station

Elev 1066 ft 33.69 °N, 117.66 °W | Updated 55 seconds ago

Clear
Clear
54.5 °F
Feels Like 54.5 °F
N
1.2
Wind Variable Wind from WSW
Gusts 1.9 mph

Today
High -- | Low -- °F
--% Chance of Precip.
Yesterday
High -- | Low -- °F
Precip. -- in
Pressure 30.25 in
Visibility 10.0 miles
Clouds Scattered Clouds 1300 ft
Dew Point 42 °F
Humidity 63%
Rainfall 0.00 in
Snow Depth Not available.
6:44 AM 4:42 PM
Waxing Gibbous, 72% visible
METAR KSNA 090853Z 00000KT 10SM SCT013 12/11 A3025 RMK AO2 SLP244 T01170106 58004
Pressure 30.25 in
Visibility 10.0 miles
Clouds Scattered Clouds 1300 ft
Dew Point 42 °F
Humidity 63%
Rainfall 0.00 in
Snow Depth Not available.
6:44 AM 4:42 PM
Waxing Gibbous, 72% visible
METAR KSNA 090853Z 00000KT 10SM SCT013 12/11 A3025 RMK AO2 SLP244 T01170106 58004

10-Day Weather Forecast

Almanac

Astronomy

Dec. 09, 2016 Rise Set
Actual Time
Civil Twilight
Nautical Twilight
Astronomical Twilight
Moon
Length of Visible Light
Length of Day
Tomorrow will be .
, % of the Moon is Illuminated

Today's Extremes

State Highs State Lows

Community

WunderPhotos

Upload Photos

1,956,371 photos uploaded!

WunderBlog® & News

Nearby

Air Quality

  Air Quality AQ Index Pollutant
Not available.

Snow Depth

Station Depth Elevation

Earthquake Activity

City Distance Mag. Time & Date
Minimum magnitude displayed is 2.5.

Coastal Water Temperatures

Place Temperature

Stations

Nearby Weather Stations

Station Location Temp. Windchill Dew Point Humidity Wind Precip. Elev Updated Type
                   

Watches & Warnings

There are currently no watches in effect.